Las Cruces, NM

5:52 PM MDT on August 03, 2015 (GMT -0600)
KNMLASCR21 | | Change Station
CLOSE
Current Station
Personal Weather Station
Location: Tech-4-Seniors, NM
Elevation: 4209 ft
Nearby Weather Stations

Elev 4209 ft 32.34 °N, 106.73 °W | Updated 2 minutes ago

Clear
Clear
95.1 °F
Feels Like 93 °F
N
0.0
Wind Variable Wind from North
Gusts 3.5 mph

Today
High -- | Low -- °F
--% Chance of Precip.
Yesterday
High -- | Low -- °F
Precip. -- in
6:22 AM 8:02 PM
Waning Gibbous, 83% visible
Pressure 30.02 in
Visibility 10.0 miles
Clouds Clear
Heat Index 93 °F
Dew Point 52 °F
Humidity 24%
Rainfall 0.00 in
Snow Depth Not available.
UV 3 out of 12
Pollen 3.70 out of 12
Air Quality Not available.
Flu Activity Not available.
METAR KLRU 032335Z AUTO 27005KT 10SM CLR 32/13 A3002 RMK AO2 T03210127

More Conditions Fewer Conditions

Pressure 30.02 in
Visibility 10.0 miles
Clouds Clear
Heat Index 93 °F
Dew Point 52 °F
Humidity 24%
Rainfall 0.00 in
Snow Depth Not available.
UV 3 out of 12
Pollen 3.70 out of 12
Air Quality Not available.
Flu Activity Not available.
METAR KLRU 032335Z AUTO 27005KT 10SM CLR 32/13 A3002 RMK AO2 T03210127

More Conditions Fewer Conditions

Nowcast | as of 5:11 PM MDT on August 3, 2015

At 506 PM MDT...rain showers and thunderstorms were continuing to slowly track southeast through the Borderland. The majority of the activity was located in southern Sierra and Otero counties in New Mexico and in eastern El Paso and Hudspeth counties in Texas. These storms are capable of producing minor flooding. The stronger storms are capable of producing minor flooding...pea sized hail and wind gusts up to 30 mph. Rain accumulations with these storms is expected to be half an inch to an inch. More rain showers and thunderstorms are expected to develop during the evening hours. For more information check out our website at www.Srh.NOAA.Gov/epz/ or follow US on facebook and twitter.

×

10-Day Weather Forecast

×

Almanac

Astronomy

Aug. 03, 2015 Rise Set
Actual Time
Civil Twilight
Nautical Twilight
Astronomical Twilight
Moon
Length of Visible Light
Length of Day
Tomorrow will be .
, % of the Moon is Illuminated

Today's Extremes

State Highs State Lows

Community

WunderPhotos

Upload Photos

1,843,791 photos uploaded!

WunderBlogs® & News

Nearby

Air Quality

  Air Quality AQ Index Pollutant
Not available.

Snow Depth

Station Depth Elevation

Earthquake Activity

City Distance Mag. Time & Date
Minimum magnitude displayed is 2.5.

Coastal Water Temperatures

Place Temperature

Stations

Nearby Weather Stations

Station Location Temp. Windchill Dew Point Humidity Wind Precip. Elev Updated Type